Time;durP1;ratioP1;P1;durP2;ratioP2;P2;SDS_P1;SDS_P2;PMS_P1;PMS_P2;Temp;Humidity;BMP_temperature;BMP_pressure;BME280_temperature;BME280_humidity;BME280_pressure;Samples;Min_cycle;Max_cycle;Signal;HPM_P1;HPM_P2
2021/04/09 00:01:48;;;;;;;26.90;14.70;;;4.00;41.20;;;;;;5053089;28;20178;-70
2021/04/09 00:04:14;;;;;;;28.45;14.23;;;4.00;42.60;;;;;;5052584;28;20406;-69
2021/04/09 00:06:41;;;;;;;25.83;13.70;;;4.10;41.50;;;;;;5052953;28;20255;-69
2021/04/09 00:09:10;;;;;;;26.10;14.32;;;4.10;43.00;;;;;;5052741;28;20583;-69
2021/04/09 00:11:37;;;;;;;31.65;14.25;;;4.10;42.40;;;;;;5052742;28;20183;-69
2021/04/09 00:14:04;;;;;;;23.60;13.88;;;4.20;40.80;;;;;;5052392;28;20174;-68
2021/04/09 00:16:30;;;;;;;21.48;13.70;;;4.20;41.00;;;;;;5052731;28;20187;-71
2021/04/09 00:18:55;;;;;;;21.97;14.10;;;4.10;40.50;;;;;;5052588;28;20221;-69
2021/04/09 00:21:21;;;;;;;32.63;14.97;;;4.10;40.30;;;;;;5052453;28;20719;-69
2021/04/09 00:23:47;;;;;;;24.47;14.67;;;4.10;41.40;;;;;;5052452;28;20211;-69
2021/04/09 00:26:13;;;;;;;23.20;13.40;;;4.10;41.30;;;;;;5053158;28;20198;-70
2021/04/09 00:28:38;;;;;;;19.30;13.63;;;4.10;42.60;;;;;;5053195;28;20171;-69
2021/04/09 00:31:05;;;;;;;24.90;14.63;;;4.10;42.20;;;;;;5052914;28;20179;-69
2021/04/09 00:33:30;;;;;;;25.88;13.68;;;4.10;41.40;;;;;;5052141;28;20226;-69
2021/04/09 00:35:56;;;;;;;21.77;13.00;;;4.20;41.20;;;;;;5031160;28;20228;-69
2021/04/09 00:38:22;;;;;;;26.70;15.40;;;4.10;41.50;;;;;;5032321;28;20577;-69
2021/04/09 00:40:48;;;;;;;27.80;14.40;;;4.10;42.10;;;;;;5031846;28;20510;-69
2021/04/09 00:43:13;;;;;;;29.47;14.60;;;4.00;40.70;;;;;;5031722;28;20203;-69
2021/04/09 00:45:39;;;;;;;21.03;13.87;;;4.00;42.60;;;;;;5014421;28;20168;-69
2021/04/09 00:48:05;;;;;;;25.60;14.70;;;4.00;43.10;;;;;;5043550;28;20199;-70
2021/04/09 00:50:33;;;;;;;27.08;14.55;;;4.10;42.10;;;;;;5052058;28;20171;-69
2021/04/09 00:53:01;;;;;;;31.38;16.20;;;4.10;42.70;;;;;;5051842;28;20195;-69
2021/04/09 00:55:27;;;;;;;26.77;14.70;;;4.10;42.70;;;;;;5051977;28;20603;-70
2021/04/09 00:57:55;;;;;;;30.07;14.83;;;4.10;43.10;;;;;;5052104;28;20218;-69
2021/04/09 01:00:21;;;;;;;28.77;14.48;;;4.10;43.90;;;;;;5052003;28;20472;-70
2021/04/09 01:02:47;;;;;;;28.67;14.10;;;4.10;43.10;;;;;;5051674;28;20210;-70
2021/04/09 01:05:15;;;;;;;30.03;14.60;;;4.00;43.60;;;;;;5051939;28;20182;-69
2021/04/09 01:07:42;;;;;;;29.00;14.15;;;4.00;42.80;;;;;;5052001;28;20635;-69
2021/04/09 01:10:10;;;;;;;25.05;14.07;;;4.00;44.60;;;;;;5052028;28;20170;-70
2021/04/09 01:12:35;;;;;;;21.38;13.48;;;4.00;43.60;;;;;;5051867;28;20627;-69
2021/04/09 01:15:02;;;;;;;26.30;14.43;;;3.90;43.70;;;;;;5051775;28;20202;-69
2021/04/09 01:17:38;;;;;;;34.55;15.48;;;3.90;45.70;;;;;;5051635;28;20270;-69
2021/04/09 01:20:22;;;;;;;20.02;13.35;;;3.90;45.00;;;;;;5051636;28;20662;-69
2021/04/09 01:22:53;;;;;;;27.33;14.07;;;3.90;44.40;;;;;;5051302;28;20211;-68
2021/04/09 01:25:54;;;;;;;24.88;13.75;;;3.80;45.90;;;;;;5051881;28;20190;-69
2021/04/09 01:28:39;;;;;;;33.72;15.13;;;3.70;48.00;;;;;;5051640;28;20177;-69
2021/04/09 01:31:27;;;;;;;23.55;13.27;;;3.70;47.80;;;;;;5051450;28;20206;-69
2021/04/09 01:33:56;;;;;;;29.58;12.63;;;3.80;46.20;;;;;;5051898;28;20739;-68
2021/04/09 01:37:01;;;;;;;27.27;12.82;;;3.80;48.10;;;;;;5051427;28;20194;-69
2021/04/09 01:39:34;;;;;;;27.63;14.05;;;3.80;47.20;;;;;;4970521;28;20594;-69
2021/04/09 01:42:05;;;;;;;29.20;14.25;;;3.80;47.20;;;;;;5040661;28;20575;-68
2021/04/09 01:44:33;;;;;;;31.98;14.60;;;3.80;46.80;;;;;;5051445;28;20179;-70
2021/04/09 01:47:01;;;;;;;22.00;13.35;;;3.80;46.50;;;;;;5051728;28;20255;-67
2021/04/09 01:49:28;;;;;;;22.23;12.38;;;3.80;45.20;;;;;;5051435;28;20746;-69
2021/04/09 01:51:55;;;;;;;24.30;12.35;;;3.90;45.50;;;;;;5051845;28;20222;-69
2021/04/09 01:54:22;;;;;;;21.23;12.27;;;3.80;46.40;;;;;;5055452;28;20171;-69
2021/04/09 01:56:51;;;;;;;22.73;12.93;;;3.90;45.10;;;;;;5055955;28;20175;-69
2021/04/09 01:59:18;;;;;;;22.90;12.75;;;3.90;45.40;;;;;;5055274;28;20548;-70
2021/04/09 02:01:46;;;;;;;21.23;12.80;;;3.90;45.80;;;;;;5037471;28;20191;-70
2021/04/09 02:04:12;;;;;;;27.67;12.63;;;3.90;44.90;;;;;;5055067;28;20668;-69
2021/04/09 02:06:40;;;;;;;25.30;12.55;;;3.90;44.50;;;;;;5055278;28;20175;-69
2021/04/09 02:09:05;;;;;;;25.33;12.82;;;3.80;45.00;;;;;;5055156;28;20202;-70
2021/04/09 02:11:36;;;;;;;22.83;12.50;;;3.80;45.80;;;;;;5054944;28;20626;-69
2021/04/09 02:14:04;;;;;;;20.25;12.02;;;3.80;46.10;;;;;;5055069;28;20770;-69
2021/04/09 02:16:30;;;;;;;24.10;12.68;;;3.80;46.60;;;;;;5055448;28;20183;-69
2021/04/09 02:19:01;;;;;;;17.23;11.60;;;3.80;47.40;;;;;;5055330;28;20193;-69
2021/04/09 02:21:27;;;;;;;18.98;11.88;;;3.80;47.20;;;;;;5054902;28;20208;-69
2021/04/09 02:23:53;;;;;;;17.73;11.45;;;3.90;45.80;;;;;;5054774;28;20203;-70
2021/04/09 02:26:19;;;;;;;20.97;12.33;;;3.80;45.40;;;;;;5054986;28;20201;-69
2021/04/09 02:28:45;;;;;;;27.27;11.50;;;3.80;46.50;;;;;;5054652;28;20632;-69
2021/04/09 02:31:12;;;;;;;23.00;12.60;;;3.80;46.50;;;;;;5054553;28;20175;-70
2021/04/09 02:33:41;;;;;;;21.08;11.40;;;3.80;45.60;;;;;;5054163;28;20206;-70
2021/04/09 02:36:22;;;;;;;18.17;10.05;;;3.80;45.60;;;;;;5054613;28;20229;-69
2021/04/09 02:38:52;;;;;;;19.95;10.63;;;3.80;45.60;;;;;;5036671;28;20561;-70
2021/04/09 02:41:20;;;;;;;22.60;10.93;;;3.80;46.80;;;;;;5054527;28;20183;-69
2021/04/09 02:43:46;;;;;;;12.55;9.95;;;3.90;43.30;;;;;;5053984;28;20206;-69
2021/04/09 02:46:19;;;;;;;18.17;10.85;;;3.90;43.70;;;;;;5054552;28;20270;-70
2021/04/09 02:48:52;;;;;;;20.88;12.95;;;3.80;44.30;;;;;;5053658;28;20392;-70
2021/04/09 02:51:20;;;;;;;23.77;13.10;;;3.80;44.90;;;;;;5053312;28;20387;-70
2021/04/09 02:53:48;;;;;;;23.70;13.00;;;3.80;44.70;;;;;;5053169;28;20377;-70
2021/04/09 02:56:15;;;;;;;21.50;12.85;;;3.90;45.10;;;;;;5053198;28;20382;-70
2021/04/09 02:58:42;;;;;;;21.73;12.48;;;3.90;45.30;;;;;;5053140;28;20377;-69
2021/04/09 03:01:08;;;;;;;20.47;13.63;;;3.90;45.40;;;;;;5053138;28;20386;-69
2021/04/09 03:03:36;;;;;;;20.10;12.30;;;3.90;45.20;;;;;;5052532;28;20920;-69
2021/04/09 03:06:04;;;;;;;23.75;12.80;;;3.90;44.00;;;;;;5052697;28;20801;-69
2021/04/09 03:08:30;;;;;;;23.77;12.63;;;3.90;43.60;;;;;;5052738;28;20511;-70
2021/04/09 03:10:56;;;;;;;24.48;12.65;;;3.90;43.10;;;;;;5052700;28;20431;-70
2021/04/09 03:13:21;;;;;;;19.40;11.93;;;3.90;44.20;;;;;;5052689;28;20385;-69
2021/04/09 03:15:56;;;;;;;17.67;11.90;;;3.90;43.70;;;;;;5052671;28;20393;-70
2021/04/09 03:18:23;;;;;;;18.90;12.77;;;3.90;43.90;;;;;;5052709;28;21051;-70
2021/04/09 03:20:48;;;;;;;18.77;12.13;;;3.90;45.00;;;;;;5052490;28;20750;-68
2021/04/09 03:23:14;;;;;;;19.40;11.83;;;3.90;45.10;;;;;;5051960;28;20411;-70
2021/04/09 03:25:40;;;;;;;20.70;12.20;;;3.90;43.50;;;;;;5034555;28;20390;-69
2021/04/09 03:28:06;;;;;;;20.30;11.70;;;3.90;43.80;;;;;;5052372;28;20435;-69
2021/04/09 03:30:32;;;;;;;20.65;12.20;;;4.00;44.00;;;;;;5052346;28;20405;-71
2021/04/09 03:32:58;;;;;;;21.67;11.30;;;4.00;43.50;;;;;;5033914;28;20421;-69
2021/04/09 03:35:24;;;;;;;20.55;11.20;;;3.90;44.00;;;;;;5052023;28;20882;-69
2021/04/09 03:37:50;;;;;;;23.73;12.77;;;4.00;43.20;;;;;;5052202;28;20392;-69
2021/04/09 03:40:17;;;;;;;24.27;11.68;;;4.00;44.30;;;;;;5052214;28;20381;-69
2021/04/09 03:42:42;;;;;;;22.05;11.85;;;4.00;42.90;;;;;;5052128;28;20401;-69
2021/04/09 03:45:09;;;;;;;19.23;12.40;;;3.90;43.70;;;;;;5052090;28;20393;-69
2021/04/09 03:47:34;;;;;;;27.57;13.03;;;3.90;44.20;;;;;;5052148;28;20413;-70
2021/04/09 03:50:01;;;;;;;18.75;11.98;;;3.90;44.90;;;;;;5052276;28;20389;-70
2021/04/09 03:52:27;;;;;;;18.00;11.88;;;3.90;44.80;;;;;;5052118;28;20488;-69
2021/04/09 03:54:52;;;;;;;22.25;11.98;;;3.90;44.40;;;;;;5050509;28;20400;-70
2021/04/09 03:57:18;;;;;;;19.23;11.40;;;3.90;44.80;;;;;;5052619;28;20386;-69
2021/04/09 03:59:44;;;;;;;17.50;11.70;;;3.90;45.10;;;;;;5055227;28;20401;-70
2021/04/09 04:02:09;;;;;;;22.67;12.18;;;3.90;45.10;;;;;;5053030;28;20728;-70
2021/04/09 04:04:35;;;;;;;24.70;12.10;;;3.90;44.30;;;;;;5034860;28;20425;-70
2021/04/09 04:07:00;;;;;;;19.67;11.73;;;3.90;45.20;;;;;;5052034;28;20936;-70
2021/04/09 04:09:26;;;;;;;25.17;13.10;;;3.90;44.80;;;;;;5051490;28;20770;-70
2021/04/09 04:11:52;;;;;;;26.57;13.40;;;3.90;45.80;;;;;;5051555;28;20382;-70
2021/04/09 04:14:17;;;;;;;24.93;11.40;;;3.90;46.00;;;;;;5051488;28;20381;-70
2021/04/09 04:16:43;;;;;;;24.38;11.98;;;3.90;46.70;;;;;;5050433;28;20382;-70
2021/04/09 04:19:09;;;;;;;22.77;12.07;;;3.90;45.80;;;;;;5051374;28;20381;-68
2021/04/09 04:21:35;;;;;;;25.63;12.35;;;3.90;46.00;;;;;;5050979;28;20399;-70
2021/04/09 04:24:01;;;;;;;20.73;12.55;;;4.00;45.30;;;;;;5051331;28;20393;-71
2021/04/09 04:26:26;;;;;;;21.43;11.53;;;3.90;46.00;;;;;;5051201;28;20893;-70
2021/04/09 04:28:52;;;;;;;24.55;12.75;;;3.90;45.40;;;;;;5051341;28;20720;-69
2021/04/09 04:31:18;;;;;;;23.20;11.77;;;4.00;45.30;;;;;;5051228;28;20385;-70
2021/04/09 04:33:44;;;;;;;21.47;12.17;;;4.00;45.40;;;;;;5051031;28;20392;-69
2021/04/09 04:36:10;;;;;;;21.00;11.80;;;4.00;45.10;;;;;;5033198;28;20416;-69
2021/04/09 04:38:36;;;;;;;20.83;12.00;;;4.00;45.30;;;;;;5051505;28;20405;-69
2021/04/09 04:41:02;;;;;;;23.30;11.83;;;4.00;45.10;;;;;;5051356;28;20896;-69
2021/04/09 04:43:27;;;;;;;18.63;11.93;;;4.00;46.30;;;;;;5050484;28;20405;-69
2021/04/09 04:45:53;;;;;;;24.20;11.77;;;4.00;46.30;;;;;;5050803;28;20901;-69
2021/04/09 04:48:19;;;;;;;18.97;11.90;;;4.00;45.60;;;;;;5050686;28;20377;-69
2021/04/09 04:50:44;;;;;;;19.35;11.55;;;4.00;45.50;;;;;;5050871;28;20393;-70
2021/04/09 04:53:10;;;;;;;19.05;11.95;;;4.00;45.20;;;;;;5050413;28;20388;-69
2021/04/09 04:55:36;;;;;;;18.75;11.90;;;4.00;45.00;;;;;;5051244;28;20418;-69
2021/04/09 04:58:02;;;;;;;21.73;11.77;;;4.00;46.40;;;;;;5043564;28;20391;-69
2021/04/09 05:00:27;;;;;;;22.42;11.80;;;4.10;44.80;;;;;;5030849;28;20395;-70
2021/04/09 05:02:54;;;;;;;17.93;12.07;;;4.00;45.00;;;;;;5030628;28;20426;-70
2021/04/09 05:05:20;;;;;;;20.90;12.32;;;4.00;44.80;;;;;;5030640;28;20432;-70
2021/04/09 05:07:46;;;;;;;21.90;12.65;;;4.00;45.40;;;;;;5012738;28;20883;-70
2021/04/09 05:10:12;;;;;;;24.23;12.70;;;4.00;45.60;;;;;;5024913;28;20804;-70
2021/04/09 05:12:38;;;;;;;23.20;15.30;;;4.00;44.60;;;;;;5050412;28;20524;-70
2021/04/09 05:15:04;;;;;;;24.50;12.90;;;4.00;45.00;;;;;;5050600;28;20468;-71
2021/04/09 05:17:30;;;;;;;21.63;13.27;;;4.00;45.70;;;;;;5050526;28;20397;-70
2021/04/09 05:19:56;;;;;;;21.08;12.40;;;4.00;45.50;;;;;;5050732;28;20393;-70
2021/04/09 05:22:21;;;;;;;20.13;12.90;;;4.10;46.50;;;;;;5050200;28;20428;-70
2021/04/09 05:24:48;;;;;;;24.30;12.83;;;4.10;46.00;;;;;;5050225;28;20866;-70
2021/04/09 05:27:14;;;;;;;21.08;12.02;;;4.30;45.20;;;;;;5051626;28;20446;-70
2021/04/09 05:29:40;;;;;;;21.15;12.95;;;4.40;43.00;;;;;;5057065;28;20385;-70
2021/04/09 05:32:10;;;;;;;24.77;13.00;;;4.40;43.70;;;;;;5056708;28;20492;-70
2021/04/09 05:34:35;;;;;;;20.10;12.50;;;4.40;43.70;;;;;;5056711;28;20396;-69
2021/04/09 05:37:02;;;;;;;20.00;13.05;;;4.50;43.20;;;;;;5057159;28;20385;-70
2021/04/09 05:39:27;;;;;;;20.75;11.90;;;4.60;42.70;;;;;;5057382;28;20676;-70
2021/04/09 05:41:53;;;;;;;21.55;11.75;;;4.60;41.70;;;;;;5039183;28;20404;-70
2021/04/09 05:44:19;;;;;;;18.58;12.85;;;4.70;42.00;;;;;;5056610;28;20750;-70
2021/04/09 05:46:45;;;;;;;24.10;13.32;;;4.80;41.80;;;;;;5056635;28;20400;-70
2021/04/09 05:49:10;;;;;;;20.55;12.68;;;4.90;41.20;;;;;;5056783;28;20377;-70
2021/04/09 05:51:36;;;;;;;23.75;12.70;;;5.00;39.80;;;;;;5057021;28;20414;-70
2021/04/09 05:54:02;;;;;;;25.60;14.77;;;5.10;40.40;;;;;;5056805;28;20472;-70
2021/04/09 05:56:28;;;;;;;20.50;12.85;;;5.30;39.90;;;;;;5057832;28;20452;-69
2021/04/09 05:58:54;;;;;;;22.85;12.32;;;5.50;38.30;;;;;;5041850;28;20582;-69
2021/04/09 06:01:20;;;;;;;22.00;13.07;;;5.60;37.10;;;;;;5036661;28;20437;-69
2021/04/09 06:03:55;;;;;;;22.88;13.73;;;5.70;36.60;;;;;;5035015;28;20919;-70
2021/04/09 06:06:20;;;;;;;19.92;12.63;;;5.70;37.00;;;;;;5036251;28;20875;-71
2021/04/09 06:08:46;;;;;;;23.20;13.37;;;5.90;36.30;;;;;;5036987;28;20486;-68
2021/04/09 06:11:11;;;;;;;23.13;12.95;;;5.90;36.00;;;;;;5056400;28;20385;-70
2021/04/09 06:13:37;;;;;;;22.83;12.60;;;6.10;36.20;;;;;;5056313;28;20393;-70
2021/04/09 06:16:05;;;;;;;22.15;13.05;;;6.20;35.50;;;;;;5056808;28;20392;-70
2021/04/09 06:18:30;;;;;;;23.42;13.00;;;6.30;35.20;;;;;;5056737;28;20435;-69
2021/04/09 06:20:56;;;;;;;19.05;12.65;;;6.40;33.10;;;;;;5038567;28;20401;-69
2021/04/09 06:23:22;;;;;;;23.23;13.65;;;6.50;32.10;;;;;;5055393;28;20417;-69
2021/04/09 06:25:47;;;;;;;24.20;13.60;;;6.50;33.70;;;;;;5056528;28;20416;-69
2021/04/09 06:28:13;;;;;;;22.13;13.83;;;6.40;32.90;;;;;;5057296;28;20381;-71
2021/04/09 06:30:38;;;;;;;20.77;12.97;;;6.50;32.40;;;;;;5057644;28;20387;-71
2021/04/09 06:33:04;;;;;;;21.30;13.10;;;6.50;32.90;;;;;;5058615;28;20905;-71
2021/04/09 06:35:30;;;;;;;22.83;13.70;;;6.60;32.60;;;;;;5058794;28;20485;-70
2021/04/09 06:37:56;;;;;;;24.15;13.25;;;6.70;31.70;;;;;;5065668;28;20413;-70
2021/04/09 06:40:22;;;;;;;20.27;12.60;;;6.80;32.20;;;;;;5056216;28;20396;-69
2021/04/09 06:42:54;;;;;;;23.33;13.25;;;6.80;31.00;;;;;;5051916;28;20434;-70
2021/04/09 06:45:19;;;;;;;24.65;13.25;;;7.30;30.70;;;;;;5054050;28;20374;-70
2021/04/09 06:47:45;;;;;;;21.55;12.75;;;7.40;29.30;;;;;;5053366;28;20387;-68
2021/04/09 06:50:11;;;;;;;25.73;13.80;;;7.60;28.10;;;;;;5053297;28;20803;-69
2021/04/09 06:52:37;;;;;;;20.95;12.73;;;7.60;28.50;;;;;;5051288;28;20434;-72
2021/04/09 06:55:04;;;;;;;19.60;13.00;;;7.70;29.00;;;;;;5051172;28;20385;-69
2021/04/09 06:57:32;;;;;;;19.98;13.63;;;7.80;28.10;;;;;;5056391;28;20438;-70
2021/04/09 07:00:26;;;;;;;20.83;13.30;;;7.90;27.50;;;;;;5043685;28;20398;-68
2021/04/09 07:02:52;;;;;;;24.88;14.40;;;8.00;27.20;;;;;;5041986;28;20731;-69
2021/04/09 07:05:18;;;;;;;21.40;13.20;;;8.20;25.70;;;;;;5049105;28;20834;-70
2021/04/09 07:07:44;;;;;;;21.73;13.07;;;8.20;25.50;;;;;;5053770;28;20402;-70
2021/04/09 07:10:10;;;;;;;22.17;13.27;;;8.30;25.40;;;;;;5049016;28;20413;-69
2021/04/09 07:12:36;;;;;;;19.40;12.80;;;8.40;24.70;;;;;;5049698;28;20434;-69
2021/04/09 07:15:14;;;;;;;26.27;13.00;;;8.60;24.10;;;;;;5047965;28;20449;-70
2021/04/09 07:17:48;;;;;;;24.67;13.02;;;8.70;25.10;;;;;;5052544;28;20834;-69
2021/04/09 07:20:21;;;;;;;24.92;13.32;;;8.80;23.40;;;;;;5044793;28;20405;-69
2021/04/09 07:22:55;;;;;;;26.65;13.02;;;8.90;23.00;;;;;;5045632;28;20964;-69
2021/04/09 07:25:23;;;;;;;24.35;14.50;;;8.90;22.80;;;;;;5054614;28;20409;-70
2021/04/09 07:27:51;;;;;;;21.77;12.67;;;9.00;23.40;;;;;;5045189;28;20382;-70
2021/04/09 07:30:34;;;;;;;24.77;13.00;;;9.20;22.80;;;;;;5054560;28;20413;-69
2021/04/09 07:33:05;;;;;;;25.10;13.68;;;9.40;21.20;;;;;;5081477;22;20424;-76
2021/04/09 07:35:46;;;;;;;23.70;13.50;;;9.50;20.60;;;;;;5080911;28;20404;-77
2021/04/09 07:38:35;;;;;;;21.88;13.40;;;9.50;21.30;;;;;;5069146;28;20399;-77
2021/04/09 07:41:06;;;;;;;18.25;13.00;;;9.70;20.50;;;;;;5066214;28;20385;-78
2021/04/09 07:43:39;;;;;;;23.98;13.93;;;9.90;20.20;;;;;;5060052;28;20407;-78
2021/04/09 07:46:07;;;;;;;20.58;13.43;;;9.90;20.30;;;;;;5075787;28;20955;-77
2021/04/09 07:48:39;;;;;;;22.38;13.00;;;10.10;19.70;;;;;;5077796;28;20402;-76
2021/04/09 07:51:07;;;;;;;29.50;13.63;;;10.20;18.70;;;;;;5068420;28;20476;-80
2021/04/09 07:53:32;;;;;;;21.80;13.40;;;10.40;18.70;;;;;;5074033;28;20496;-77
2021/04/09 07:56:10;;;;;;;18.90;12.45;;;10.40;19.00;;;;;;5086595;28;20897;-77
2021/04/09 07:58:37;;;;;;;22.00;13.20;;;10.50;19.00;;;;;;5086318;28;20398;-76
2021/04/09 08:01:05;;;;;;;21.38;12.30;;;10.60;17.40;;;;;;5072784;28;20450;-76
2021/04/09 08:03:33;;;;;;;21.80;13.15;;;10.80;16.90;;;;;;5081991;28;20412;-76
2021/04/09 08:06:10;;;;;;;22.02;11.45;;;10.90;16.50;;;;;;5090686;28;20484;-77
2021/04/09 08:08:37;;;;;;;21.57;12.50;;;10.90;15.80;;;;;;5082830;28;20398;-77
2021/04/09 08:11:22;;;;;;;21.27;11.30;;;10.90;16.10;;;;;;5081622;28;20395;-75
2021/04/09 08:13:58;;;;;;;17.92;10.10;;;10.90;15.90;;;;;;5061174;28;20813;-74
2021/04/09 08:16:35;;;;;;;21.50;11.13;;;11.20;14.00;;;;;;5082884;28;20391;-77
2021/04/09 08:19:13;;;;;;;18.02;10.80;;;11.20;15.20;;;;;;5080604;28;20393;-77
2021/04/09 08:21:43;;;;;;;20.48;10.75;;;11.50;14.90;;;;;;5078403;28;20418;-77
2021/04/09 08:24:10;;;;;;;20.10;10.80;;;11.70;13.10;;;;;;5092287;28;20433;-77
2021/04/09 08:26:37;;;;;;;25.90;10.80;;;11.80;13.30;;;;;;5086783;28;20374;-77
2021/04/09 08:29:05;;;;;;;16.15;10.30;;;11.90;12.80;;;;;;5091343;28;20469;-76
2021/04/09 08:31:32;;;;;;;21.97;11.07;;;12.00;12.40;;;;;;5082678;28;20388;-77
2021/04/09 08:33:58;;;;;;;17.98;11.15;;;12.00;13.10;;;;;;5090243;28;20398;-77
2021/04/09 08:36:25;;;;;;;16.03;10.60;;;12.00;12.70;;;;;;5084005;28;20383;-77
2021/04/09 08:38:51;;;;;;;20.92;11.80;;;12.00;13.10;;;;;;5080369;28;20473;-76
2021/04/09 08:41:18;;;;;;;18.10;10.97;;;12.00;12.90;;;;;;5083031;28;20476;-77
2021/04/09 08:43:45;;;;;;;16.55;11.00;;;12.00;13.70;;;;;;5075780;28;20406;-77
2021/04/09 08:46:11;;;;;;;19.10;11.20;;;12.00;13.60;;;;;;5092375;28;20394;-74
2021/04/09 08:48:39;;;;;;;18.73;10.70;;;12.00;13.60;;;;;;5087569;28;20426;-77
2021/04/09 08:51:07;;;;;;;20.85;11.43;;;12.00;14.30;;;;;;5087770;28;20377;-77
2021/04/09 08:53:33;;;;;;;18.60;10.80;;;12.20;13.70;;;;;;5076966;28;20568;-77
2021/04/09 08:55:59;;;;;;;20.38;10.60;;;12.50;12.90;;;;;;5069740;28;20747;-76
2021/04/09 08:58:24;;;;;;;23.63;11.60;;;12.50;12.70;;;;;;5086487;28;20400;-77
2021/04/09 09:00:52;;;;;;;23.93;11.10;;;12.50;12.90;;;;;;5086979;28;20507;-76
2021/04/09 09:03:29;;;;;;;23.00;11.55;;;12.50;13.20;;;;;;5086218;28;20435;-77
2021/04/09 09:05:56;;;;;;;20.85;10.73;;;12.60;12.60;;;;;;5085653;28;20409;-76
2021/04/09 09:08:22;;;;;;;24.13;11.02;;;12.60;13.10;;;;;;5087731;28;20760;-76
2021/04/09 09:10:48;;;;;;;19.55;11.52;;;12.70;12.50;;;;;;5085754;28;20379;-74
2021/04/09 09:13:24;;;;;;;21.88;11.68;;;12.70;13.30;;;;;;5079747;28;20403;-76
2021/04/09 09:15:55;;;;;;;19.35;11.20;;;12.90;12.80;;;;;;5095417;28;20408;-78
2021/04/09 09:21:09;;;;;;;21.35;10.85;;;13.30;12.20;;;;;;5080421;28;20403;-77
2021/04/09 09:23:45;;;;;;;18.58;12.02;;;13.50;12.30;;;;;;5085651;28;20412;-77
2021/04/09 09:26:32;;;;;;;18.40;10.93;;;14.00;11.50;;;;;;5093187;28;20419;-78
2021/04/09 09:29:17;;;;;;;21.52;11.38;;;14.20;9.70;;;;;;5082516;28;20384;-76
2021/04/09 09:32:07;;;;;;;19.75;11.30;;;14.20;10.40;;;;;;5060191;28;20391;-77
2021/04/09 09:34:40;;;;;;;23.95;10.80;;;14.00;9.90;;;;;;5090155;28;20396;-77
2021/04/09 09:37:15;;;;;;;19.25;10.95;;;14.00;10.10;;;;;;5078402;28;20408;-77
2021/04/09 09:39:43;;;;;;;23.40;10.98;;;14.10;10.30;;;;;;5074990;28;20478;-77
2021/04/09 09:42:20;;;;;;;15.40;10.30;;;14.10;9.90;;;;;;5083311;28;20394;-75
2021/04/09 09:45:09;;;;;;;16.67;10.65;;;14.40;9.10;;;;;;5075813;28;20408;-76
2021/04/09 09:47:44;;;;;;;20.38;10.80;;;14.60;8.50;;;;;;5084465;28;20458;-77
2021/04/09 09:50:25;;;;;;;22.75;11.50;;;14.60;8.50;;;;;;5075273;28;20419;-77
2021/04/09 09:53:00;;;;;;;20.60;11.00;;;14.50;9.50;;;;;;5061825;28;20447;-77
2021/04/09 09:55:37;;;;;;;18.63;9.85;;;14.50;9.20;;;;;;5071909;28;20404;-77
2021/04/09 09:58:19;;;;;;;16.35;10.30;;;14.50;8.70;;;;;;5060153;28;20426;-76
2021/04/09 10:00:59;;;;;;;17.52;10.80;;;14.70;8.80;;;;;;5060967;28;20957;-77
2021/04/09 10:03:33;;;;;;;18.67;10.60;;;14.80;8.30;;;;;;5071310;28;20493;-78
2021/04/09 10:06:02;;;;;;;19.33;11.20;;;14.90;8.00;;;;;;5090497;28;20394;-76
2021/04/09 10:08:30;;;;;;;19.30;11.10;;;15.00;7.80;;;;;;5083461;28;20449;-77
2021/04/09 10:11:16;;;;;;;17.95;10.75;;;15.10;7.40;;;;;;5074923;28;20394;-77
2021/04/09 10:13:44;;;;;;;19.00;11.23;;;15.10;7.60;;;;;;5073534;28;20396;-76
2021/04/09 10:16:13;;;;;;;16.55;9.82;;;15.10;7.90;;;;;;5084211;28;20395;-77
2021/04/09 10:18:53;;;;;;;17.70;11.05;;;15.00;8.00;;;;;;5088523;28;20429;-78
2021/04/09 10:21:24;;;;;;;20.45;10.60;;;15.00;7.30;;;;;;5099768;28;20712;-76
2021/04/09 10:24:09;;;;;;;17.85;10.65;;;15.00;8.00;;;;;;5093964;28;20883;-76
2021/04/09 10:26:40;;;;;;;18.83;10.50;;;15.20;7.50;;;;;;5076429;28;20466;-77
2021/04/09 10:29:22;;;;;;;17.90;10.63;;;15.30;7.60;;;;;;5064890;28;20390;-77
2021/04/09 10:31:49;;;;;;;20.27;10.55;;;15.30;8.10;;;;;;5080915;28;20478;-76
2021/04/09 10:34:22;;;;;;;17.08;9.75;;;15.30;8.30;;;;;;5090976;28;20489;-76
2021/04/09 10:36:48;;;;;;;23.38;10.48;;;15.30;8.20;;;;;;5058879;28;20752;-77
2021/04/09 10:39:16;;;;;;;17.88;10.75;;;15.40;7.80;;;;;;5077154;28;20397;-76
2021/04/09 10:41:48;;;;;;;15.18;10.05;;;15.40;8.40;;;;;;5092725;28;20392;-77
2021/04/09 10:44:19;;;;;;;17.48;10.38;;;15.50;8.20;;;;;;5082387;28;20489;-77
2021/04/09 10:46:47;;;;;;;27.00;10.73;;;15.70;7.10;;;;;;5097666;28;20378;-76
2021/04/09 10:49:22;;;;;;;15.75;10.05;;;15.60;7.40;;;;;;5068448;28;20422;-76
2021/04/09 10:51:51;;;;;;;18.42;10.60;;;15.40;8.50;;;;;;5086824;28;20796;-76
2021/04/09 10:54:20;;;;;;;14.95;10.40;;;15.20;8.40;;;;;;5079096;28;20497;-75
2021/04/09 10:57:06;;;;;;;18.50;10.80;;;15.30;8.60;;;;;;5082569;28;20388;-74
2021/04/09 10:59:36;;;;;;;19.08;10.93;;;15.40;8.20;;;;;;5052656;28;20397;-76
2021/04/09 11:02:04;;;;;;;19.92;10.65;;;15.50;8.30;;;;;;5091332;28;20502;-76
2021/04/09 11:04:32;;;;;;;18.10;10.80;;;15.80;8.40;;;;;;5086323;28;20427;-76
2021/04/09 11:07:03;;;;;;;16.25;9.40;;;15.90;7.50;;;;;;5096214;28;20450;-77
2021/04/09 11:09:49;;;;;;;18.80;10.93;;;16.00;7.90;;;;;;5085435;28;20499;-76
2021/04/09 11:12:16;;;;;;;16.85;10.48;;;16.10;7.50;;;;;;5080215;28;20435;-77
2021/04/09 11:14:42;;;;;;;19.77;11.30;;;16.00;7.70;;;;;;5091907;28;20419;-76
2021/04/09 11:17:08;;;;;;;18.77;10.95;;;16.20;7.30;;;;;;5094235;28;20391;-76
2021/04/09 11:19:37;;;;;;;15.50;10.57;;;16.20;6.90;;;;;;5102316;28;20394;-75
2021/04/09 11:22:05;;;;;;;15.68;10.35;;;16.00;7.20;;;;;;5106745;28;20417;-76
2021/04/09 11:24:34;;;;;;;20.00;10.30;;;15.90;7.20;;;;;;5077750;28;20447;-77
2021/04/09 11:27:01;;;;;;;14.63;10.07;;;15.60;7.90;;;;;;5093352;28;20406;-77
2021/04/09 11:29:31;;;;;;;17.35;9.80;;;15.50;8.10;;;;;;5086453;28;20476;-79
2021/04/09 11:32:26;;;;;;;15.87;9.50;;;15.30;8.40;;;;;;5084688;28;20891;-77
2021/04/09 11:34:52;;;;;;;14.52;9.50;;;15.00;9.10;;;;;;5052631;28;20459;-76
2021/04/09 11:37:19;;;;;;;16.58;9.48;;;15.00;9.90;;;;;;5069918;28;20463;-76
2021/04/09 11:39:50;;;;;;;13.25;9.27;;;15.20;8.70;;;;;;5089423;28;20390;-79
2021/04/09 11:42:35;;;;;;;13.30;8.77;;;15.20;8.80;;;;;;5086707;28;20420;-75
2021/04/09 11:45:18;;;;;;;13.05;8.65;;;15.40;8.30;;;;;;5088431;28;20375;-77
2021/04/09 11:47:44;;;;;;;16.58;9.02;;;15.40;8.50;;;;;;5078338;28;20420;-76
2021/04/09 11:50:17;;;;;;;14.70;9.10;;;15.50;9.20;;;;;;5087301;28;20949;-76
2021/04/09 11:53:00;;;;;;;16.67;8.95;;;15.70;9.20;;;;;;5088144;28;20473;-76
2021/04/09 11:55:29;;;;;;;14.10;8.70;;;16.10;8.30;;;;;;5088881;28;20389;-78
2021/04/09 11:57:55;;;;;;;17.25;8.50;;;16.20;7.00;;;;;;5085341;28;20395;-77
2021/04/09 12:00:27;;;;;;;14.27;8.20;;;16.00;7.40;;;;;;5087483;28;20408;-76
2021/04/09 12:02:57;;;;;;;13.15;8.43;;;15.90;7.30;;;;;;5077110;28;20750;-76
2021/04/09 12:05:24;;;;;;;15.30;8.30;;;15.70;8.30;;;;;;5092128;28;20402;-76
2021/04/09 12:07:51;;;;;;;13.02;8.50;;;15.30;8.30;;;;;;5071869;28;20405;-76
2021/04/09 12:10:17;;;;;;;11.23;8.00;;;15.20;8.80;;;;;;5088084;28;20441;-74
2021/04/09 12:12:44;;;;;;;13.95;8.15;;;15.30;8.80;;;;;;5084731;28;20386;-75
2021/04/09 12:15:11;;;;;;;14.07;8.25;;;15.40;8.10;;;;;;5089368;28;20398;-75
2021/04/09 12:17:37;;;;;;;17.05;8.32;;;15.10;8.50;;;;;;5083860;28;20400;-75
2021/04/09 12:20:08;;;;;;;14.65;8.00;;;15.00;9.00;;;;;;5084180;28;20407;-75
2021/04/09 12:22:34;;;;;;;12.20;7.30;;;14.80;9.20;;;;;;5091424;28;20452;-75
2021/04/09 12:25:00;;;;;;;14.07;8.13;;;14.80;9.30;;;;;;5075432;28;20394;-75
2021/04/09 12:27:25;;;;;;;12.53;8.30;;;15.00;8.90;;;;;;5083496;28;20421;-74
2021/04/09 12:29:51;;;;;;;13.67;8.20;;;15.10;9.20;;;;;;5068220;28;20399;-74
2021/04/09 12:32:16;;;;;;;14.60;7.60;;;15.30;8.70;;;;;;5080268;28;20900;-77
2021/04/09 12:34:42;;;;;;;12.35;7.60;;;15.30;8.50;;;;;;5090722;28;20429;-77
2021/04/09 12:37:08;;;;;;;10.18;6.95;;;15.30;8.50;;;;;;5075825;28;20392;-77
2021/04/09 12:39:33;;;;;;;10.90;7.22;;;15.20;8.30;;;;;;5065635;28;20398;-75
2021/04/09 12:42:01;;;;;;;10.90;6.80;;;15.10;8.50;;;;;;5085707;28;20382;-75
2021/04/09 12:44:27;;;;;;;12.25;7.20;;;15.10;8.10;;;;;;5091014;28;20918;-75
2021/04/09 12:46:52;;;;;;;12.57;6.83;;;15.00;8.50;;;;;;5067873;28;20430;-76
2021/04/09 12:49:19;;;;;;;10.40;7.00;;;14.90;8.90;;;;;;5092339;28;20432;-76